Terminal Aerodrome Forecast
Issued by NWS

Home | Current Version | Previous Version | Text Only | Print | Product List | Glossary On
Versions: 1 2 3 4 5 6 7 8 9 10 11 12 13 14 15 16 17 18 19 20 21 22 23 24 25 26 27 28 29 30 31 32 33 34
000
FTUS45 KPSR 021100
TAFIWA
TAF
KIWA 021120Z 0212/0312 15008KT P6SM SCT045 OVC060
     FM021400 15012KT P6SM VCSH BKN040 OVC060
     FM021800 18011G19KT P6SM -RA SCT025 OVC035
      TEMPO 0218/0220 23013G24KT 3SM RA BR BKN020 OVC030
     FM022200 25008KT P6SM VCSH SCT030 OVC050
     FM030000 22006KT P6SM SCT040 BKN250
     FM030200 12005KT P6SM BKN080
      AMD LTD TO CLD VIS AND WIND TIL 021300=

USA.gov is the U.S. government's official web portal to all federal, state and local government web resources and services.